createdAt,value
2019-02-20T00:01:29.765Z,1.40
2019-02-20T00:03:56.841Z,1.30
2019-02-20T00:06:23.761Z,1.30
2019-02-20T00:08:50.573Z,1.40
2019-02-20T00:11:17.518Z,1.60
2019-02-20T00:13:44.581Z,1.60
2019-02-20T00:16:12.100Z,1.70
2019-02-20T00:18:39.010Z,1.70
2019-02-20T00:21:05.928Z,1.60
2019-02-20T00:23:32.736Z,1.60
2019-02-20T00:25:59.815Z,1.70
2019-02-20T00:28:26.625Z,1.70
2019-02-20T00:30:53.711Z,1.70
2019-02-20T00:33:20.631Z,1.80
2019-02-20T00:35:47.956Z,1.80
2019-02-20T00:38:14.967Z,1.70
2019-02-20T00:40:41.779Z,1.70
2019-02-20T00:43:08.789Z,1.80
2019-02-20T00:45:59.143Z,2.00
2019-02-20T00:48:37.511Z,2.00
2019-02-20T00:51:11.692Z,1.80
2019-02-20T00:53:44.552Z,1.80
2019-02-20T00:56:11.364Z,1.70
2019-02-20T00:58:38.433Z,1.70
2019-02-20T01:01:05.517Z,1.50
2019-02-20T01:03:32.340Z,1.40
2019-02-20T01:05:59.163Z,1.30
2019-02-20T01:08:25.969Z,1.20
2019-02-20T01:10:53.178Z,1.20
2019-02-20T01:13:20.197Z,1.00
2019-02-20T01:15:47.461Z,1.10
2019-02-20T01:18:14.644Z,1.00
2019-02-20T01:20:41.543Z,0.90
2019-02-20T01:23:08.636Z,0.80
2019-02-20T01:25:35.984Z,0.80
2019-02-20T01:28:02.903Z,1.00
2019-02-20T01:30:29.988Z,1.20
2019-02-20T01:32:56.985Z,1.30
2019-02-20T01:35:23.920Z,1.40
2019-02-20T01:37:50.856Z,1.50
2019-02-20T01:40:17.909Z,1.60
2019-02-20T01:42:45.080Z,1.50
2019-02-20T01:45:12.108Z,1.40
2019-02-20T01:47:39.009Z,1.20
2019-02-20T01:50:06.578Z,1.10
2019-02-20T01:52:33.802Z,1.10
2019-02-20T01:55:00.903Z,1.10
2019-02-20T01:57:27.769Z,1.00
2019-02-20T01:59:54.932Z,1.10
2019-02-20T02:02:21.997Z,1.10
2019-02-20T02:04:48.810Z,0.90
2019-02-20T02:07:15.612Z,0.80
2019-02-20T02:09:42.703Z,0.90
2019-02-20T02:12:09.641Z,0.80
2019-02-20T02:14:36.465Z,0.80
2019-02-20T02:17:03.834Z,0.90
2019-02-20T02:19:31.032Z,0.90
2019-02-20T02:21:58.109Z,1.00
2019-02-20T02:24:25.040Z,0.90
2019-02-20T02:26:52.044Z,0.80
2019-02-20T02:29:18.972Z,0.80
2019-02-20T02:31:46.045Z,0.90
2019-02-20T02:34:13.113Z,0.90
2019-02-20T02:36:40.021Z,0.80
2019-02-20T02:39:06.952Z,0.90
2019-02-20T02:41:34.036Z,0.90
2019-02-20T02:44:00.945Z,0.90
2019-02-20T02:46:28.366Z,0.80
2019-02-20T02:48:55.435Z,0.90
2019-02-20T02:51:22.534Z,1.00
2019-02-20T02:53:49.881Z,1.10
2019-02-20T02:56:16.993Z,1.10
2019-02-20T02:58:44.050Z,1.00
2019-02-20T03:01:10.869Z,1.00
2019-02-20T03:03:38.207Z,1.00
2019-02-20T03:06:05.042Z,0.90
2019-02-20T03:08:32.097Z,1.00
2019-02-20T03:10:59.156Z,1.00
2019-02-20T03:13:25.964Z,1.10
2019-02-20T03:15:53.024Z,1.10
2019-02-20T03:18:19.949Z,0.90
2019-02-20T03:20:47.032Z,0.80
2019-02-20T03:23:13.842Z,0.80
2019-02-20T03:25:40.909Z,0.80
2019-02-20T03:28:07.814Z,0.90
2019-02-20T03:30:35.441Z,0.90
2019-02-20T03:33:02.513Z,0.80
2019-02-20T03:35:29.333Z,0.80
2019-02-20T03:37:56.170Z,0.80
2019-02-20T03:40:23.067Z,0.90
2019-02-20T03:42:50.242Z,0.90
2019-02-20T03:45:17.305Z,1.00
2019-02-20T03:47:44.153Z,1.00
2019-02-20T03:50:11.056Z,1.00
2019-02-20T03:52:37.881Z,0.90
2019-02-20T03:55:05.022Z,0.90
2019-02-20T03:57:31.941Z,0.90
2019-02-20T03:59:58.859Z,0.90
2019-02-20T04:02:25.669Z,0.80
2019-02-20T04:04:52.756Z,0.80
2019-02-20T04:07:19.885Z,0.80
2019-02-20T04:09:46.953Z,0.80
2019-02-20T04:12:14.326Z,0.80
2019-02-20T04:14:41.342Z,0.80
2019-02-20T04:17:08.157Z,0.80
2019-02-20T04:19:35.413Z,0.60
2019-02-20T04:22:02.333Z,0.60
2019-02-20T04:24:29.391Z,0.60
2019-02-20T04:26:56.206Z,0.50
2019-02-20T04:29:23.512Z,0.60
2019-02-20T04:31:50.339Z,0.60
2019-02-20T04:34:17.161Z,0.50
2019-02-20T04:36:44.252Z,0.50
2019-02-20T04:39:11.192Z,0.70
2019-02-20T04:41:38.253Z,0.70
2019-02-20T04:44:05.286Z,0.80
2019-02-20T04:46:32.089Z,0.80
2019-02-20T04:48:58.904Z,0.70
2019-02-20T04:51:25.960Z,0.70
2019-02-20T04:53:53.134Z,0.80
2019-02-20T04:56:20.053Z,0.80
2019-02-20T04:58:50.385Z,0.80
2019-02-20T05:01:17.203Z,0.80
2019-02-20T05:03:44.032Z,0.80
2019-02-20T05:06:11.291Z,0.70
2019-02-20T05:08:38.152Z,0.50
2019-02-20T05:11:05.065Z,0.50
2019-02-20T05:13:32.133Z,0.40
2019-02-20T05:15:59.231Z,0.30
2019-02-20T05:18:26.313Z,0.50
2019-02-20T05:20:53.620Z,0.70
2019-02-20T05:23:20.591Z,0.70
2019-02-20T05:25:47.401Z,0.50
2019-02-20T05:28:15.002Z,0.50
2019-02-20T05:30:42.175Z,0.50
2019-02-20T05:33:08.982Z,0.40
2019-02-20T05:35:36.318Z,0.40
2019-02-20T05:38:03.260Z,0.40
2019-02-20T05:40:30.095Z,0.20
2019-02-20T05:42:56.910Z,0.10
2019-02-20T05:45:24.101Z,0.10
2019-02-20T05:47:51.248Z,0.20
2019-02-20T05:50:18.608Z,0.20
2019-02-20T05:52:45.629Z,0.20
2019-02-20T05:55:12.908Z,0.10
2019-02-20T05:57:39.717Z,0.00
2019-02-20T06:00:07.637Z,0.00
2019-02-20T06:02:35.001Z,0.00
2019-02-20T06:05:01.857Z,0.00
2019-02-20T06:07:28.757Z,0.10
2019-02-20T06:09:55.933Z,0.20
2019-02-20T06:12:23.060Z,0.10
2019-02-20T06:14:49.976Z,0.00
2019-02-20T06:17:16.784Z,0.00
2019-02-20T06:19:43.755Z,0.10
2019-02-20T06:22:10.665Z,0.20
2019-02-20T06:24:43.871Z,0.20
2019-02-20T06:27:07.916Z,0.10
2019-02-20T06:29:34.920Z,0.20
2019-02-20T06:32:01.740Z,0.20
2019-02-20T06:34:28.623Z,0.30
2019-02-20T06:36:55.878Z,0.30
2019-02-20T06:39:24.085Z,0.30
2019-02-20T06:41:50.991Z,0.30
2019-02-20T06:44:18.059Z,0.30
2019-02-20T06:46:45.174Z,0.20
2019-02-20T06:49:13.008Z,0.30
2019-02-20T06:51:40.215Z,0.30
2019-02-20T06:54:07.025Z,0.30
2019-02-20T06:56:35.152Z,0.40
2019-02-20T06:59:02.133Z,0.30
2019-02-20T07:01:29.454Z,0.30
2019-02-20T07:03:56.293Z,0.30
2019-02-20T07:06:54.823Z,0.30
2019-02-20T07:10:19.231Z,0.30
2019-02-20T07:13:10.547Z,0.40
2019-02-20T07:16:02.816Z,0.60
2019-02-20T07:19:07.137Z,0.60
2019-02-20T07:22:15.432Z,0.70
2019-02-20T07:25:12.312Z,0.80
2019-02-20T07:28:03.333Z,1.00
2019-02-20T07:30:30.136Z,1.10
2019-02-20T07:32:57.512Z,1.30
2019-02-20T07:35:24.454Z,1.40
2019-02-20T07:37:51.594Z,1.50
2019-02-20T07:40:18.646Z,1.50
2019-02-20T07:42:45.578Z,1.60
2019-02-20T07:45:13.556Z,1.70
2019-02-20T07:47:40.600Z,1.60
2019-02-20T07:50:09.177Z,1.70
2019-02-20T07:52:36.640Z,1.80
2019-02-20T07:55:12.901Z,1.80
2019-02-20T07:57:32.754Z,1.90
2019-02-20T07:59:59.559Z,2.00
2019-02-20T08:02:26.601Z,2.00
2019-02-20T08:04:53.936Z,2.20
2019-02-20T08:07:20.937Z,2.20
2019-02-20T08:09:48.100Z,2.20
2019-02-20T08:12:16.244Z,2.20
2019-02-20T08:14:44.253Z,2.30
2019-02-20T08:17:11.317Z,2.30
2019-02-20T08:19:38.407Z,2.30
2019-02-20T08:22:05.592Z,2.30
2019-02-20T08:24:32.417Z,2.40
2019-02-20T08:26:59.741Z,2.50
2019-02-20T08:29:26.566Z,2.40
2019-02-20T08:31:53.996Z,2.50
2019-02-20T08:34:21.158Z,2.50
2019-02-20T08:36:48.228Z,2.50
2019-02-20T08:39:15.066Z,2.60
2019-02-20T08:41:41.881Z,2.60
2019-02-20T08:44:09.044Z,2.80
2019-02-20T08:46:36.226Z,2.80
2019-02-20T08:49:03.158Z,2.80
2019-02-20T08:51:30.075Z,2.90
2019-02-20T08:53:56.888Z,2.90
2019-02-20T08:56:23.704Z,3.00
2019-02-20T08:58:50.529Z,3.10
2019-02-20T09:01:17.337Z,3.10
2019-02-20T09:03:44.174Z,3.20
2019-02-20T09:06:11.236Z,3.20
2019-02-20T09:08:38.141Z,3.30
2019-02-20T09:11:05.157Z,3.40
2019-02-20T09:13:32.428Z,3.40
2019-02-20T09:15:59.341Z,3.40
2019-02-20T09:18:26.490Z,3.40
2019-02-20T09:20:53.309Z,3.40
2019-02-20T09:23:20.402Z,3.50
2019-02-20T09:25:47.216Z,3.50
2019-02-20T09:28:14.589Z,3.60
2019-02-20T09:30:42.141Z,3.60
2019-02-20T09:33:09.589Z,3.70
2019-02-20T09:35:36.511Z,3.70
2019-02-20T09:38:03.528Z,3.80
2019-02-20T09:40:30.346Z,3.90
2019-02-20T09:42:57.461Z,3.90
2019-02-20T09:45:24.671Z,3.90
2019-02-20T09:47:51.749Z,4.00
2019-02-20T09:50:18.761Z,4.00
2019-02-20T09:52:51.965Z,4.10
2019-02-20T09:55:14.639Z,4.10
2019-02-20T09:57:41.876Z,4.20
2019-02-20T10:00:11.071Z,4.20
2019-02-20T10:02:38.345Z,4.30
2019-02-20T10:05:05.816Z,4.40
2019-02-20T10:07:33.361Z,4.40
2019-02-20T10:10:00.308Z,4.50
2019-02-20T10:12:27.585Z,4.50
2019-02-20T10:14:54.935Z,4.60
2019-02-20T10:17:22.101Z,4.60
2019-02-20T10:19:48.913Z,4.70
2019-02-20T10:22:15.837Z,4.80
2019-02-20T10:24:42.636Z,4.80
2019-02-20T10:27:09.622Z,4.90
2019-02-20T10:29:36.446Z,5.00
2019-02-20T10:32:03.773Z,5.10
2019-02-20T10:34:30.581Z,5.20
2019-02-20T10:36:57.684Z,5.20
2019-02-20T10:39:24.625Z,5.30
2019-02-20T10:41:51.553Z,5.40
2019-02-20T10:44:18.374Z,5.40
2019-02-20T10:46:45.203Z,5.50
2019-02-20T10:49:12.212Z,5.60
2019-02-20T10:51:39.037Z,5.60
2019-02-20T10:54:06.388Z,5.70
2019-02-20T10:56:33.312Z,5.70
2019-02-20T10:59:00.952Z,5.80
2019-02-20T11:01:27.889Z,5.90
2019-02-20T11:03:55.445Z,5.90
2019-02-20T11:06:22.508Z,6.00
2019-02-20T11:08:50.506Z,6.10
2019-02-20T11:11:17.592Z,6.10
2019-02-20T11:13:44.688Z,6.20
2019-02-20T11:16:11.949Z,6.30
2019-02-20T11:18:38.813Z,6.40
2019-02-20T11:21:05.746Z,6.40
2019-02-20T11:23:32.844Z,6.50
2019-02-20T11:25:59.756Z,6.60
2019-02-20T11:28:27.226Z,6.70
2019-02-20T11:30:54.856Z,6.70
2019-02-20T11:33:23.280Z,6.80
2019-02-20T11:35:50.548Z,6.90
2019-02-20T11:38:17.495Z,7.00
2019-02-20T11:40:44.304Z,7.10
2019-02-20T11:43:11.278Z,7.00
2019-02-20T11:45:38.765Z,7.10
2019-02-20T11:48:05.989Z,7.10
2019-02-20T11:50:33.009Z,7.30
2019-02-20T11:52:59.856Z,7.30
2019-02-20T11:55:26.792Z,7.30
2019-02-20T11:58:00.469Z,7.30
2019-02-20T12:00:23.242Z,7.40
2019-02-20T12:02:50.341Z,7.40
2019-02-20T12:05:17.818Z,7.50
2019-02-20T12:07:44.728Z,7.50
2019-02-20T12:10:13.085Z,7.60
2019-02-20T12:12:40.562Z,7.60
2019-02-20T12:15:08.037Z,7.70
2019-02-20T12:17:35.465Z,7.70
2019-02-20T12:20:02.525Z,7.70
2019-02-20T12:22:29.541Z,7.70
2019-02-20T12:24:56.577Z,7.70
2019-02-20T12:27:23.593Z,7.70
2019-02-20T12:29:50.531Z,7.70
2019-02-20T12:32:17.369Z,7.70
2019-02-20T12:34:44.301Z,7.70
2019-02-20T12:37:11.240Z,7.70
2019-02-20T12:39:38.332Z,7.70
2019-02-20T12:42:05.351Z,7.70
2019-02-20T12:44:33.056Z,7.70
2019-02-20T12:47:00.326Z,7.70
2019-02-20T12:49:27.737Z,7.70
2019-02-20T12:51:54.825Z,7.80
2019-02-20T12:54:21.849Z,7.70
2019-02-20T12:56:48.677Z,7.90
2019-02-20T12:59:15.508Z,7.90
2019-02-20T13:01:42.435Z,8.00
2019-02-20T13:04:09.604Z,8.00
2019-02-20T13:06:36.995Z,8.00
2019-02-20T13:09:07.292Z,8.10
2019-02-20T13:11:34.225Z,8.10
2019-02-20T13:14:01.349Z,8.20
2019-02-20T13:16:28.341Z,8.30
2019-02-20T13:18:55.425Z,8.40
2019-02-20T13:21:22.358Z,8.50
2019-02-20T13:23:49.457Z,8.50
2019-02-20T13:26:16.688Z,8.50
2019-02-20T13:28:43.798Z,8.60
2019-02-20T13:31:10.725Z,8.60
2019-02-20T13:33:37.608Z,8.50
2019-02-20T13:36:04.735Z,8.50
2019-02-20T13:38:31.966Z,8.60
2019-02-20T13:40:59.089Z,8.60
2019-02-20T13:43:26.485Z,8.70
2019-02-20T13:45:53.649Z,8.70
2019-02-20T13:48:20.716Z,8.80
2019-02-20T13:50:47.796Z,8.80
2019-02-20T13:53:14.869Z,8.80
2019-02-20T13:55:41.820Z,8.90
2019-02-20T13:58:09.437Z,8.90
2019-02-20T14:00:36.566Z,8.90
2019-02-20T14:03:03.877Z,8.90
2019-02-20T14:05:30.784Z,8.90
2019-02-20T14:07:57.604Z,8.90
2019-02-20T14:10:24.609Z,8.90
2019-02-20T14:12:51.680Z,8.80
2019-02-20T14:15:19.223Z,8.90
2019-02-20T14:17:46.433Z,9.00
2019-02-20T14:20:13.597Z,9.10
2019-02-20T14:22:40.721Z,9.20
2019-02-20T14:25:07.953Z,9.20
2019-02-20T14:27:34.987Z,9.20
2019-02-20T14:30:02.198Z,9.30
2019-02-20T14:32:29.125Z,9.20
2019-02-20T14:34:56.030Z,9.20
2019-02-20T14:37:22.975Z,9.10
2019-02-20T14:39:49.892Z,9.10
2019-02-20T14:42:17.025Z,9.10
2019-02-20T14:44:44.156Z,9.10
2019-02-20T14:47:11.329Z,9.10
2019-02-20T14:49:38.255Z,9.10
2019-02-20T14:52:05.187Z,9.10
2019-02-20T14:54:32.414Z,9.00
2019-02-20T14:56:59.445Z,9.00
2019-02-20T14:59:26.697Z,9.10
2019-02-20T15:01:53.766Z,9.10
2019-02-20T15:04:20.779Z,9.10
2019-02-20T15:06:47.885Z,9.00
2019-02-20T15:09:15.232Z,9.00
2019-02-20T15:11:42.511Z,9.00
2019-02-20T15:14:09.579Z,9.00
2019-02-20T15:16:36.940Z,9.00
2019-02-20T15:19:06.641Z,8.90
2019-02-20T15:21:36.451Z,8.90
2019-02-20T15:24:03.725Z,8.90
2019-02-20T15:26:30.997Z,8.80
2019-02-20T15:28:58.345Z,8.80
2019-02-20T15:31:33.554Z,8.80
2019-02-20T15:33:54.241Z,8.80
2019-02-20T15:36:21.569Z,8.80
2019-02-20T15:38:48.622Z,8.90
2019-02-20T15:41:16.089Z,8.90
2019-02-20T15:43:43.530Z,8.90
2019-02-20T15:46:10.646Z,9.00
2019-02-20T15:48:38.284Z,9.00
2019-02-20T15:51:05.759Z,9.00
2019-02-20T15:53:33.029Z,9.00
2019-02-20T15:56:00.510Z,8.90
2019-02-20T15:58:27.398Z,8.90
2019-02-20T16:00:54.764Z,8.90
2019-02-20T16:03:22.053Z,8.90
2019-02-20T16:05:49.385Z,8.90
2019-02-20T16:08:16.490Z,8.90
2019-02-20T16:10:43.786Z,8.50
2019-02-20T16:13:10.692Z,8.90
2019-02-20T16:15:37.747Z,8.90
2019-02-20T16:18:05.002Z,8.80
2019-02-20T16:20:33.617Z,8.80
2019-02-20T16:23:00.807Z,8.70
2019-02-20T16:25:28.173Z,8.70
2019-02-20T16:27:55.224Z,8.60
2019-02-20T16:30:22.904Z,8.60
2019-02-20T16:32:51.996Z,8.50
2019-02-20T16:35:18.830Z,8.40
2019-02-20T16:37:46.419Z,8.30
2019-02-20T16:40:13.669Z,8.30
2019-02-20T16:42:40.944Z,8.20
2019-02-20T16:45:14.993Z,8.10
2019-02-20T16:47:42.429Z,8.10
2019-02-20T16:50:10.117Z,8.00
2019-02-20T16:52:37.193Z,7.90
2019-02-20T16:55:04.397Z,7.90
2019-02-20T16:57:31.780Z,7.80
2019-02-20T16:59:58.797Z,7.70
2019-02-20T17:02:25.625Z,7.70
2019-02-20T17:04:59.191Z,7.60
2019-02-20T17:07:21.572Z,7.60
2019-02-20T17:09:48.697Z,7.50
2019-02-20T17:12:16.037Z,7.40
2019-02-20T17:14:42.853Z,7.30
2019-02-20T17:17:10.636Z,7.30
2019-02-20T17:19:38.372Z,7.40
2019-02-20T17:22:05.932Z,7.50
2019-02-20T17:24:33.585Z,7.50
2019-02-20T17:27:00.908Z,7.50
2019-02-20T17:29:28.082Z,7.40
2019-02-20T17:31:55.000Z,7.40
2019-02-20T17:34:22.166Z,7.40
2019-02-20T17:36:49.188Z,7.30
2019-02-20T17:39:16.024Z,7.20
2019-02-20T17:41:42.948Z,7.20
2019-02-20T17:44:10.280Z,7.10
2019-02-20T17:46:37.325Z,7.20
2019-02-20T17:49:04.616Z,7.30
2019-02-20T17:51:32.281Z,7.30
2019-02-20T17:53:59.447Z,7.30
2019-02-20T17:56:26.661Z,7.30
2019-02-20T17:58:53.949Z,7.20
2019-02-20T18:01:21.390Z,7.00
2019-02-20T18:03:48.237Z,6.80
2019-02-20T18:06:15.397Z,6.90
2019-02-20T18:08:42.476Z,6.90
2019-02-20T18:11:09.403Z,6.80
2019-02-20T18:13:36.233Z,6.70
2019-02-20T18:16:06.557Z,6.50
2019-02-20T18:18:42.149Z,6.60
2019-02-20T18:21:11.201Z,6.20
2019-02-20T18:23:38.272Z,6.20
2019-02-20T18:26:05.432Z,6.10
2019-02-20T18:28:32.652Z,6.00
2019-02-20T18:30:59.605Z,5.80
2019-02-20T18:33:26.438Z,5.70
2019-02-20T18:35:53.358Z,5.70
2019-02-20T18:38:20.570Z,5.70
2019-02-20T18:40:51.025Z,5.70
2019-02-20T18:43:18.063Z,5.80
2019-02-20T18:45:47.544Z,5.80
2019-02-20T18:48:14.683Z,5.70
2019-02-20T18:50:44.130Z,5.40
2019-02-20T18:53:11.166Z,5.30
2019-02-20T18:55:38.176Z,5.20
2019-02-20T18:58:05.335Z,5.30
2019-02-20T19:00:32.528Z,5.30
2019-02-20T19:03:00.030Z,5.30
2019-02-20T19:05:27.374Z,5.10
2019-02-20T19:07:54.462Z,5.20
2019-02-20T19:10:35.791Z,5.20
2019-02-20T19:13:25.189Z,5.10
2019-02-20T19:16:03.288Z,4.90
2019-02-20T19:18:59.961Z,4.90
2019-02-20T19:21:59.896Z,4.90
2019-02-20T19:25:15.220Z,4.90
2019-02-20T19:27:48.376Z,4.90
2019-02-20T19:30:48.544Z,4.90
2019-02-20T19:33:43.975Z,4.90
2019-02-20T19:36:58.205Z,4.70
2019-02-20T19:40:33.790Z,4.60
2019-02-20T19:43:38.538Z,4.60
2019-02-20T19:46:53.754Z,4.60
2019-02-20T19:49:58.818Z,4.50
2019-02-20T19:52:55.588Z,4.40
2019-02-20T19:55:48.761Z,4.40
2019-02-20T19:58:57.937Z,4.50
2019-02-20T20:01:59.007Z,4.50
2019-02-20T20:04:41.224Z,4.50
2019-02-20T20:07:48.954Z,4.30
2019-02-20T20:10:36.376Z,4.20
2019-02-20T20:13:36.759Z,4.20
2019-02-20T20:16:31.256Z,4.20
2019-02-20T20:19:41.385Z,4.20
2019-02-20T20:22:49.548Z,4.10
2019-02-20T20:25:50.229Z,3.80
2019-02-20T20:28:29.173Z,3.80
2019-02-20T20:31:36.262Z,4.00
2019-02-20T20:34:46.694Z,4.00
2019-02-20T20:37:25.390Z,4.20
2019-02-20T20:40:18.996Z,4.20
2019-02-20T20:43:20.380Z,4.10
2019-02-20T20:46:04.403Z,4.00
2019-02-20T20:49:13.910Z,3.90
2019-02-20T20:52:02.261Z,3.80
2019-02-20T20:55:05.781Z,3.80
2019-02-20T20:58:13.377Z,3.80
2019-02-20T21:01:16.732Z,3.80
2019-02-20T21:04:01.837Z,3.70
2019-02-20T21:07:18.785Z,3.60
2019-02-20T21:10:10.605Z,3.80
2019-02-20T21:13:04.608Z,3.70
2019-02-20T21:16:01.105Z,3.60
2019-02-20T21:19:01.513Z,3.70
2019-02-20T21:22:03.164Z,3.60
2019-02-20T21:25:06.892Z,3.60
2019-02-20T21:28:05.132Z,3.40
2019-02-20T21:31:05.187Z,3.50
2019-02-20T21:34:26.483Z,3.50
2019-02-20T21:37:14.519Z,3.50
2019-02-20T21:40:07.354Z,3.50
2019-02-20T21:43:28.621Z,3.40
2019-02-20T21:46:25.173Z,3.50
2019-02-20T21:49:19.865Z,3.40
2019-02-20T21:52:30.616Z,3.40
2019-02-20T21:55:31.065Z,3.40
2019-02-20T21:58:41.894Z,3.30
2019-02-20T22:01:31.268Z,3.10
2019-02-20T22:04:30.333Z,3.00
2019-02-20T22:07:28.597Z,3.00
2019-02-20T22:10:36.707Z,3.10
2019-02-20T22:13:54.404Z,3.10
2019-02-20T22:16:48.957Z,3.00
2019-02-20T22:19:59.817Z,2.80
2019-02-20T22:23:22.785Z,2.70
2019-02-20T22:26:37.928Z,2.80
2019-02-20T22:29:36.540Z,2.90
2019-02-20T22:32:39.050Z,2.90
2019-02-20T22:35:48.162Z,2.80
2019-02-20T22:39:07.822Z,2.70
2019-02-20T22:42:18.452Z,2.60
2019-02-20T22:45:42.136Z,2.50
2019-02-20T22:49:05.861Z,2.50
2019-02-20T22:52:05.448Z,2.50
2019-02-20T22:55:18.836Z,2.50
2019-02-20T22:58:26.479Z,2.50
2019-02-20T23:01:24.516Z,2.50
2019-02-20T23:04:48.933Z,2.60
2019-02-20T23:07:24.670Z,2.70
2019-02-20T23:10:28.088Z,2.50
2019-02-20T23:13:20.065Z,2.60
2019-02-20T23:15:47.128Z,2.70
2019-02-20T23:18:13.956Z,2.60
2019-02-20T23:20:41.116Z,2.50
2019-02-20T23:23:08.524Z,2.50
2019-02-20T23:25:35.969Z,2.40
2019-02-20T23:28:03.124Z,2.30
2019-02-20T23:30:29.933Z,2.30
2019-02-20T23:32:57.008Z,2.20
2019-02-20T23:35:23.820Z,2.10
2019-02-20T23:37:50.664Z,2.10
2019-02-20T23:40:17.562Z,2.00
2019-02-20T23:42:44.944Z,2.00
2019-02-20T23:45:12.220Z,1.90
2019-02-20T23:47:39.397Z,2.00
2019-02-20T23:50:06.686Z,2.10
2019-02-20T23:52:33.511Z,2.10
2019-02-20T23:55:00.522Z,2.10
2019-02-20T23:57:27.336Z,2.20
2019-02-20T23:59:54.136Z,2.00
